createdAt,value
2023-01-13T07:23:17.473Z,100.00
2023-01-13T07:25:44.317Z,100.00
2023-01-13T07:28:11.170Z,100.00
2023-01-13T07:30:38.640Z,100.00
2023-01-13T07:33:05.516Z,100.00
2023-01-13T07:35:32.397Z,100.00
2023-01-13T07:37:59.272Z,100.00
2023-01-13T07:40:26.134Z,100.00
2023-01-13T07:43:11.594Z,100.00
2023-01-13T07:45:38.483Z,100.00
2023-01-13T07:48:05.608Z,100.00
2023-01-13T07:50:32.570Z,100.00
2023-01-13T07:53:00.124Z,100.00
2023-01-13T07:55:27.021Z,100.00
2023-01-13T07:57:53.949Z,100.00
2023-01-13T08:00:21.425Z,100.00
2023-01-13T08:02:48.372Z,100.00
2023-01-13T08:05:18.590Z,100.00
2023-01-13T08:07:45.708Z,100.00
2023-01-13T08:10:12.602Z,100.00
2023-01-13T08:12:57.997Z,100.00
2023-01-13T08:15:24.908Z,100.00
2023-01-13T08:17:54.691Z,100.00
2023-01-13T08:20:21.772Z,100.00
2023-01-13T08:22:48.646Z,100.00
2023-01-13T08:25:15.517Z,100.00
2023-01-13T08:27:42.552Z,100.00
2023-01-13T08:30:11.604Z,100.00
2023-01-13T08:32:38.469Z,100.00
2023-01-13T08:35:05.677Z,100.00
2023-01-13T08:37:32.663Z,100.00
2023-01-13T08:39:59.698Z,100.00
2023-01-13T08:42:33.081Z,100.00
2023-01-13T08:44:59.956Z,100.00
2023-01-13T08:47:29.926Z,100.00
2023-01-13T08:49:56.736Z,100.00
2023-01-13T08:52:24.271Z,100.00
2023-01-13T08:54:51.223Z,100.00
2023-01-13T08:57:21.474Z,100.00
2023-01-13T08:59:48.721Z,99.67
2023-01-13T09:02:21.702Z,100.00
2023-01-13T09:04:49.234Z,98.69
2023-01-13T09:07:16.880Z,98.83
2023-01-13T09:09:43.865Z,99.16
2023-01-13T09:12:34.084Z,99.34
2023-01-13T09:15:02.145Z,98.51
2023-01-13T09:17:29.068Z,97.21
2023-01-13T09:19:55.934Z,95.96
2023-01-13T09:22:27.068Z,95.58
2023-01-13T09:24:55.341Z,95.28
2023-01-13T09:27:23.158Z,96.07
2023-01-13T09:29:50.442Z,96.39
2023-01-13T09:32:17.411Z,96.56
2023-01-13T09:35:02.620Z,94.37
2023-01-13T09:37:32.642Z,94.67
2023-01-13T09:39:59.631Z,95.82
2023-01-13T09:43:07.915Z,94.83
2023-01-13T09:45:44.055Z,93.91
2023-01-13T09:48:21.123Z,94.09
2023-01-13T09:51:03.001Z,93.89
2023-01-13T09:53:37.167Z,92.42
2023-01-13T09:56:04.447Z,92.90
2023-01-13T09:58:35.419Z,92.49
2023-01-13T10:01:52.827Z,91.82
2023-01-13T10:04:20.159Z,92.57
2023-01-13T10:07:00.727Z,91.95
2023-01-13T10:09:49.935Z,92.46
2023-01-13T10:12:45.058Z,93.09
2023-01-13T10:15:23.475Z,93.65
2023-01-13T10:17:53.231Z,92.82
2023-01-13T10:20:29.509Z,91.07
2023-01-13T10:23:18.898Z,91.14
2023-01-13T10:26:04.381Z,90.71
2023-01-13T10:28:31.582Z,90.46
2023-01-13T10:30:59.773Z,90.15
2023-01-13T10:33:30.731Z,90.71
2023-01-13T10:36:04.789Z,90.65
2023-01-13T10:38:34.779Z,90.08
2023-01-13T10:41:16.488Z,90.10
2023-01-13T10:43:59.008Z,89.58
2023-01-13T10:46:26.184Z,89.05
2023-01-13T10:48:58.449Z,88.39
2023-01-13T10:51:34.494Z,88.81
2023-01-13T10:54:14.508Z,88.75
2023-01-13T10:56:45.140Z,88.47
2023-01-13T10:59:27.016Z,88.47
2023-01-13T11:01:58.710Z,88.78
2023-01-13T11:04:40.858Z,89.19
2023-01-13T11:07:28.343Z,89.76
2023-01-13T11:10:24.599Z,90.88
2023-01-13T11:13:10.028Z,90.34
2023-01-13T11:15:47.504Z,90.48
2023-01-13T11:18:36.061Z,91.07
2023-01-13T11:21:08.291Z,91.64
2023-01-13T11:23:47.304Z,92.28
2023-01-13T11:26:27.957Z,92.42
2023-01-13T11:29:10.654Z,91.94
2023-01-13T11:31:46.295Z,91.96
2023-01-13T11:34:31.203Z,92.33
2023-01-13T11:37:01.047Z,92.26
2023-01-13T11:39:49.100Z,92.57
2023-01-13T11:42:28.098Z,92.88
2023-01-13T11:45:13.292Z,93.47
2023-01-13T11:47:40.147Z,92.91
2023-01-13T11:50:16.330Z,93.32
2023-01-13T11:52:45.968Z,92.78
2023-01-13T11:55:24.916Z,92.87
2023-01-13T11:58:05.719Z,93.97
2023-01-13T12:00:56.720Z,93.54
2023-01-13T12:03:41.853Z,92.90
2023-01-13T12:06:20.924Z,92.77
2023-01-13T12:09:22.647Z,92.83
2023-01-13T12:12:27.885Z,92.04
2023-01-13T12:15:03.110Z,92.07
2023-01-13T12:17:39.725Z,92.80
2023-01-13T12:20:18.815Z,92.87
2023-01-13T12:22:49.749Z,92.36
2023-01-13T12:25:50.796Z,91.49
2023-01-13T12:28:25.435Z,90.60
2023-01-13T12:30:59.361Z,91.72
2023-01-13T12:33:46.790Z,90.62
2023-01-13T12:36:50.398Z,90.52
2023-01-13T12:39:35.692Z,89.50
2023-01-13T12:42:36.189Z,89.00
2023-01-13T12:45:12.017Z,88.23
2023-01-13T12:47:43.965Z,88.66
2023-01-13T12:50:22.890Z,88.59
2023-01-13T12:52:51.844Z,88.10
2023-01-13T12:55:26.897Z,87.84
2023-01-13T12:58:15.722Z,87.37
2023-01-13T13:00:44.416Z,87.37
2023-01-13T13:03:11.327Z,88.03
2023-01-13T13:06:04.373Z,87.56
2023-01-13T13:08:44.584Z,87.19
2023-01-13T13:11:40.500Z,87.77
2023-01-13T13:14:12.756Z,87.76
2023-01-13T13:16:48.964Z,88.19
2023-01-13T13:19:18.962Z,88.47
2023-01-13T13:22:14.200Z,88.05
2023-01-13T13:24:44.070Z,88.05
2023-01-13T13:27:24.267Z,88.43
2023-01-13T13:30:02.233Z,88.39
2023-01-13T13:32:56.197Z,88.09
2023-01-13T13:35:28.824Z,87.88
2023-01-13T13:38:21.609Z,88.09
2023-01-13T13:41:07.253Z,88.60
2023-01-13T13:43:59.662Z,87.47
2023-01-13T13:46:47.599Z,87.32
2023-01-13T13:49:15.454Z,87.38
2023-01-13T13:51:50.555Z,87.92
2023-01-13T13:54:21.313Z,88.27
2023-01-13T13:56:50.357Z,87.80
2023-01-13T13:59:22.805Z,87.72
2023-01-13T14:02:02.351Z,87.42
2023-01-13T14:04:37.300Z,87.72
2023-01-13T14:07:18.613Z,87.40
2023-01-13T14:09:48.835Z,87.60
2023-01-13T14:12:19.038Z,87.76
2023-01-13T14:14:47.987Z,87.96
2023-01-13T14:17:28.058Z,88.41
2023-01-13T14:20:08.180Z,87.82
2023-01-13T14:22:35.329Z,87.17
2023-01-13T14:25:02.349Z,87.86
2023-01-13T14:27:30.632Z,87.67
2023-01-13T14:30:00.628Z,88.74
2023-01-13T14:32:35.151Z,89.75
2023-01-13T14:35:02.065Z,91.17
